NWS Home NWS Lubbock West Texas Mesonet Latest Conditions as of 0514 AM, Thu May 24, 2018

Latest   N   C   S   Daily Sum   3hrΔ   24hrΔ   Soil Data 
Site Map   24hr Precip   72hr Precip   Google Plot


Station Time of Last Temp Dew Pt. RH Wind Direction Wind Speed Wind Gust Max Wind Max Temp Min Temp Max RH Min RH Altimeter 1HR Rain Today's Rain Solar Rad RFTI
Abernathy 5ENE  05:10 AM 63 57 85% NE56 14 mph 28° @ 0330 AM 69 63 86 61 30.13" 0 0 0 0
Adrian 6WSW  05:10 AM 57 51 81% SE1314 27 mph 80° @ 1239 AM 58 56 87 79 30.15" 0 0 0 0
Aiken 3WSW  05:10 AM 64 59 83% E910 24 mph 7° @ 0233 AM 68 64 86 62 30.13" 0 0 0 0
Amarillo 15NNW   05:10 AM 60 57 91% SE67 26 mph 309° @ 1202 AM 60 57 100 88 30.11" 0 0.47 0 0
Amarillo 7SSE  05:10 AM 58 57 94% SE1012 35 mph 338° @ 1234 AM 66 58 94 72 30.13" 0 0 0 0
Amarillo 9NNE  05:10 AM 60 60 100% SE811 33 mph 338° @ 1209 AM 60 57 100 92 30.10" 0 0.26 0 0
Amherst 1NE  05:10 AM 60 55 87% E79 26 mph 157° @ 1250 AM 73 60 87 37 30.13" 0 0 0 0
Andrews 2E  05:10 AM 62 59 90% N45 10 mph 2° @ 0215 AM 65 62 90 80 30.09" 0 0 0 0
Anton 6SSW  05:10 AM 63 56 79% NE911 25 mph 152° @ 0210 AM 69 63 79 51 30.11" 0 0 0 0
Aspermont 3NE  05:10 AM 71 64 81% NW34 20 mph 133° @ 1205 AM 79 71 81 56 30.04" 0 0 0 0
Big Bend NP - Persimmon Gap  05:10 AM 72 60 65% N78 28 mph 34° @ 0155 AM 78 72 66 55 30.02" 0 0 0 0
Big Lake 1WNW  05:10 AM 70 63 78% SE913 16 mph 138° @ 0445 AM 75 69 78 59 30.04" 0 0 0 0
Bootleg 11WNW  05:10 AM 56 51 81% E1011 32 mph 43° @ 1207 AM 63 55 87 75 30.17" 0 0 0 0
Boys Ranch 1WSW  05:10 AM 58 57 96% E12 18 mph 102° @ 1246 AM 60 58 96 90 30.12" 0 0.09 0 0
Brownfield 2S  05:10 AM 64 58 84% E44 11 mph 126° @ 1245 AM 67 63 86 68 30.09" 0 0 0 0
Canadian 6E  05:10 AM 60 60 98% E45 32 mph 277° @ 0240 AM 62 60 99 89 30.08" 0 0.98 0 0
Caprock Canyons State Park  05:10 AM 63 62 95% N37 26 mph 322° @ 0249 AM 75 63 95 40 30.11" 0 0.59 0 0
Childress 2NNE  05:10 AM 68 60 79% N1419 22 mph 333° @ 0435 AM 75 68 80 66 30.10" 0 0 0 0
Clarendon 2WSW  05:10 AM 62 60 93% NE1519 33 mph 339° @ 0200 AM 75 60 93 61 30.11" 0.11 0.37 0 0
Claude 12SW  05:10 AM 59 57 94% NE1215 39 mph 337° @ 0105 AM 70 59 94 58 30.12" 0 0.05 0 0
Clyde 2WNW  05:10 AM 68 65 89% S1012 17 mph 156° @ 0308 AM 75 68 90 68 30.06" 0 0 0 0
Colorado City 5NW  05:10 AM 69 63 81% SE78 14 mph 139° @ 0114 AM 76 69 81 55 30.06" 0 0 0 0
Coyanosa 2N  05:10 AM 63 54 73% NE45 20 mph 123° @ 1209 AM 70 61 81 63 30.03" 0 0 0 0
Crowell 1E  05:10 AM 69 65 87% E66 12 mph 144° @ 1212 AM 76 69 90 67 30.05" 0 0 0 0
Dell City  05:10 AM 57 48 72% W55 27 mph 144° @ 1248 AM 71 57 72 44 30.11" 0 0 0 0
Denver City 7WNW  05:10 AM 59 52 79% E56 8 mph 136° @ 1245 AM 62 58 86 72 30.10" 0 0 0 0
Dimmitt 2NE  05:10 AM 60 54 82% E1315 37 mph 13° @ 0100 AM 68 60 82 53 30.14" 0 0 0 0
Dora NM 2SW  05:10 AM 56 50 84% NW45 22 mph 165° @ 1225 AM 68 56 84 43 30.14" 0 0 0 0
Dozier 3W  05:10 AM 63 61 92% S24 34 mph 249° @ 0453 AM 76 63 92 66 30.17" 0.16 0.26 0 0
Earth 9WSW  05:10 AM 57 54 89% E89 43 mph 162° @ 1201 AM 78 56 89 29 30.14" 0 0 0 0
Endee NM 2SW  05:10 AM 55 51 89% NE66 22 mph 65° @ 1205 AM 61 54 93 78 30.14" 0 0 0 0
Estelline 3SSE  05:10 AM 68 62 82% N1317 25 mph 338° @ 0414 AM 77 68 82 61 30.11" 0 0 0 0
Floydada 2NNE  05:10 AM 64 60 87% NE1417 20 mph 36° @ 0350 AM 69 64 87 57 30.11" 0 0 0 0
Fluvanna 3WNW  05:10 AM 65 55 71% E67 10 mph 62° @ 1205 AM 72 65 72 56 30.07" 0 0 0 0
Fort Chadbourne  05:10 AM 69 66 90% SE44 16 mph 138° @ 0324 AM 74 69 90 64 30.06" 0 0 0 0
Fort Lancaster  05:10 AM 74 66 76% E810 18 mph 105° @ 0125 AM 75 69 77 61 30.02" 0 0 0 0
Fort Lewis CO  05:10 AM 38 25 58% N810 14 mph 178° @ 0440 AM 47 38 60 37 30.28" 0 0 0 0
Fort McKavett  05:10 AM 71 67 89% SE710 17 mph 138° @ 0421 AM 73 70 90 68 30.07" 0 0 0 0
Friona 2NE  05:10 AM 57 52 84% E89 31 mph 25° @ 1245 AM 65 56 87 70 30.15" 0 0 0 0
Fritch 1WNW  05:10 AM 60 55 83% N45 26 mph 283° @ 1225 AM 64 59 95 73 30.10" 0 0.61 0 0
Gail 2ESE  05:10 AM 64 58 83% NE23 8 mph 311° @ 0315 AM 69 64 90 77 30.06" 0 0 0 0
Goodlett 3W  05:10 AM 68 63 85% N78 19 mph 139° @ 1255 AM 77 68 85 61 30.05" 0 0 0 0
Goodnight  05:10 AM 60 59 96% NE1113 33 mph 335° @ 0132 AM 71 60 96 63 30.12" 0 0.27 0 0
Graham 5SSW  05:00 AM 67 54 65% SE66 14 mph 32° @ 0255 AM 71 67 68 58 30.07" 0 0 0 0
Guadalupe Mtns Natl Park  05:10 AM 65 42 43% W79 17 mph 298° @ 0306 AM 66 61 56 42 30.19" 0 0 0 0
Guthrie 10WSW  05:10 AM 72 62 75% SE68 29 mph 208° @ 1220 AM 80 71 75 46 30.04" 0 0 0 0
Happy 1E  05:10 AM 60 56 87% E911 42 mph 352° @ 1251 AM 69 60 87 58 30.14" 0 0 0 0
Hart 3N  05:10 AM 60 56 88% NE1315 37 mph 359° @ 0115 AM 69 60 88 53 30.13" 0 0 0 0
Haskell 1NW  05:10 AM 71 62 77% SE57 18 mph 151° @ 0320 AM 78 71 77 56 30.03" 0 0 0 0
Hereford 2NW  05:10 AM 59 50 72% E89 36 mph 31° @ 1235 AM 66 59 75 64 30.14" 0 0 0 0
Hobbs NM 5NW  05:10 AM 59 54 84% N23 8 mph 111° @ 1248 AM 63 59 87 68 30.13" 0 0 0 0
Jayton 1SSE  05:10 AM 70 60 74% S56 16 mph 262° @ 1205 AM 78 70 75 52 30.05" 0 0 0 0
Knox City 3NW  05:10 AM 72 65 82% S45 18 mph 140° @ 0215 AM 77 71 85 61 30.03" 0 0 0 0
Lake Alan Henry 1NW  05:10 AM 66 59 80% E22 8 mph 18° @ 0258 AM 74 66 80 55 30.05" 0 0 0 0
Lamesa 2SE  05:10 AM 64 59 86% NE34 10 mph 12° @ 0310 AM 67 64 90 85 30.09" 0 0 0 0
Lesley 2S  05:10 AM 66 62 89% NE1518 30 mph 8° @ 0251 AM 76 65 89 64 30.09" 0.10 0.12 0 0
Levelland 4S  05:10 AM 60 54 83% NE45 15 mph 88° @ 0155 AM 67 60 86 62 30.11" 0 0.01 0 0
Lomax 1SSE  05:10 AM 71 61 69% S23 12 mph 172° @ 0200 AM 76 71 69 52 30.07" 0 0 0 0
Lubbock 3WNW TTU  05:10 AM 65 58 81% NE912 15 mph 145° @ 0305 AM 69 64 83 60 30.11" 0 0 0 0
McCamey 1SSW  05:10 AM 70 60 71% E34 13 mph 105° @ 0310 AM 79 70 71 38 30.03" 0 0 0 0
McLean 1E  05:10 AM 61 57 90% SE1420 27 mph 308° @ 0220 AM 66 60 91 77 30.10" 0.07 0.16 0 0
Memphis 1NE  05:10 AM 65 60 88% N1419 29 mph 20° @ 0335 AM 76 65 90 65 30.11" 0.04 0.04 0 0
Menard 2NW   05:10 AM 69 67 93% SE24 10 mph 120° @ 0416 AM 74 67 95 72 30.06" 0 0 0 0
Mertzon 3NNE  05:10 AM 71 65 82% S79 17 mph 144° @ 0255 AM 73 68 82 70 30.05" 0 0 0 0
Morton 1ENE  05:10 AM 59 55 88% N00 16 mph 176° @ 0210 AM 71 59 88 45 30.11" 0 0 0 0
Muleshoe 2SSW  05:10 AM 58 54 87% NE912 29 mph 358° @ 0120 AM 74 57 88 39 30.13" 0 0 0 0
New Home  05:10 AM 65 57 75% SE35 9 mph 124° @ 1216 AM 68 65 75 64 30.11" 0 0 0 0
Northfield 1S  05:10 AM 66 63 92% NE1823 27 mph 19° @ 0505 AM 77 66 92 50 30.08" 0.12 0.12 0 0
O'Donnell 1N  05:10 AM 65 56 76% SE68 12 mph 76° @ 1205 AM 68 64 86 74 30.08" 0 0 0 0
Odell 4ENE  05:10 AM 72 66 82% N67 18 mph 130° @ 0211 AM 76 72 82 69 30.07" 0 0 0 0
Olton 6S  05:10 AM 61 56 87% NE79 19 mph 172° @ 1255 AM 70 61 87 52 30.12" 0 0 0 0
Paducah 10SW  05:10 AM 69 63 84% SE23 22 mph 188° @ 1240 AM 78 69 84 54 30.05" 0 0 0 0
Palo Duro 4E (JA Ranch)  05:10 AM 62 61 94% NW23 34 mph 319° @ 0138 AM 74 62 95 59 30.08" 0.01 0.33 0 0
Palo Duro Canyon SP Floor  05:10 AM 64 58 81% E58 35 mph 349° @ 0106 AM 76 61 89 42 30.10" 0 0.01 0 0
Palo Duro Canyon State Park Rim  05:10 AM 62 56 83% SE68 37 mph 346° @ 1243 AM 74 59 88 44 30.14" 0 0.01 0 0
Pampa 2E  05:10 AM 58 57 98% SE1012 27 mph 61° @ 0305 AM 61 57 99 93 30.12" 0 0 0 0
Panhandle 1SSW  05:10 AM 60 57 90% SE1112 39 mph 296° @ 1252 AM 63 57 96 84 30.13" 0 0.57 0 0
Plains 3N  05:10 AM 59 53 83% SE66 11 mph 297° @ 1210 AM 65 59 83 63 30.10" 0 0 0 0
Plainview 1S  05:10 AM 63 60 91% E79 23 mph 9° @ 0230 AM 69 63 91 59 30.12" 0 0 0 0
Post 1NE  05:10 AM 67 55 67% S12 11 mph 30° @ 1205 AM 72 67 72 52 30.07" 0 0 0 0
Ralls 1SE  05:10 AM 66 53 63% NE911 18 mph 18° @ 0415 AM 69 65 77 59 30.12" 0 0 0 0
Reese Center  05:10 AM 61 56 87% NE79 23 mph 152° @ 0215 AM 67 60 89 61 30.11" 0 0.07 0 0
Roaring Springs 3N  05:10 AM 67 61 85% N1016 20 mph 355° @ 0500 AM 74 66 85 53 30.09" 0 0 0 0
Rotan 5W  05:10 AM 70 64 80% S89 14 mph 167° @ 0424 AM 77 70 80 54 30.05" 0 0 0 0
San Angelo 7NW  05:10 AM 70 63 82% S57 12 mph 89° @ 0215 AM 74 68 82 62 30.05" 0 0 0 0
Seagraves 1SW  05:10 AM 57 55 95% NE34 6 mph 78° @ 1205 AM 63 57 95 75 30.09" 0 0 0 0
Seminole 2NNE  05:10 AM 60 55 87% NE34 8 mph 2° @ 0440 AM 62 60 90 83 30.08" 0 0 0 0
Seymour 3NW  05:10 AM 71 64 83% S46 18 mph 137° @ 0230 AM 77 71 83 68 30.04" 0 0 0 0
Sierra Blanca 1SSE  05:10 AM 65 51 60% S23 19 mph 126° @ 0113 AM 69 64 61 48 30.14" 0 0 0 0
Silverton 7ESE  05:10 AM 62 59 95% NE1014 27 mph 328° @ 0245 AM 67 62 96 60 30.12" 0 0.48 0 0
Slaton 2NE  05:10 AM 65 55 73% NE79 14 mph 23° @ 0500 AM 69 65 73 58 30.11" 0 0 0 0
Snyder 3E  05:10 AM 69 62 83% SE810 16 mph 185° @ 1205 AM 80 69 83 47 30.05" 0 0 0 0
Snyder 3SSW  05:10 AM 69 62 78% S810 12 mph 208° @ 1204 AM 79 69 78 50 30.06" 0 0 0 0
Spur 1W  05:10 AM 70 56 65% SE47 10 mph 72° @ 0105 AM 75 68 73 49 30.04" 0 0 0 0
St. Lawrence 5SW  05:10 AM 69 59 71% SE910 23 mph 182° @ 1250 AM 76 69 71 56 30.05" 0 0 0 0
Stamford 5ESE  05:10 AM 72 66 79% S810 17 mph 162° @ 0334 AM 78 72 79 59 30.04" 0 0 0 0
Sterling City 4WSW  05:10 AM 70 62 75% E34 15 mph 150° @ 0139 AM 77 70 75 57 30.07" 0 0 0 0
Stinnett 1NNW  05:10 AM 59 55 88% SE78 39 mph 9° @ 0202 AM 64 59 96 67 30.12" 0 0.37 0 0
Sundown 8WSW  05:10 AM 58 54 90% NE34 18 mph 285° @ 1215 AM 62 57 91 80 30.11" 0 0 0 0
Sweetwater 11SW   05:10 AM 68 66 92% SE1113 27 mph 133° @ 0255 AM 76 68 92 57 30.07" 0 0 0 0
Tahoka 3NNE  05:10 AM 64 56 76% E78 10 mph 102° @ 0448 AM 67 62 80 64 30.08" 0 0 0 0
Tarzan 2WNW  05:10 AM 66 63 91% NE55 9 mph 306° @ 1208 AM 71 65 91 74 30.08" 0 0 0 0
Tatum NM 2SW  05:10 AM 54 51 91% NW34 7 mph 44° @ 1205 AM 59 54 92 81 30.12" 0 0 0 0
Throckmorton 1SW  05:10 AM 68 65 90% SE45 13 mph 137° @ 0328 AM 73 68 90 71 30.04" 0 0 0 0
Tulia 2ENE  05:10 AM 60 59 98% NE1012 41 mph 350° @ 0115 AM 67 60 98 69 30.13" 0 0.03 0 0
Turkey 2WSW  05:10 AM 65 61 88% N1721 28 mph 280° @ 0315 AM 76 64 95 46 30.08" 0 0.01 0 0
Umbarger 3NNE  05:10 AM 59 54 83% SE810 40 mph 4° @ 1217 AM 66 59 83 67 30.14" 0 0 0 0
Van Horn 3ENE  05:10 AM 68 57 70% SW810 14 mph 201° @ 0436 AM 72 65 70 48 30.11" 0 0 0 0
Vigo Park  05:10 AM 61 60 97% E1315 34 mph 346° @ 0133 AM 70 60 97 52 30.13" 0 0 0 0
Wall 2E  05:10 AM 72 66 83% S1619 23 mph 164° @ 0437 AM 75 72 83 63 30.04" 0 0 0 0
Weinert 2NNE  05:10 AM 72 65 78% SE89 21 mph 152° @ 0227 AM 78 72 78 58 30.04" 0 0 0 0
Welch  05:10 AM 63 60 90% E67 10 mph 41° @ 0256 AM 66 63 93 84 30.10" 0 0 0 0
White River Lake 6NW  05:10 AM 65 55 73% N1112 12 mph 48° @ 1230 AM 72 64 76 52 30.08" 0 0 0 0
Wolfforth 6SSW  05:10 AM 63 57 84% N49 17 mph 116° @ 1215 AM 68 62 84 64 30.10" 0 0 0 0

West Texas Mesonet Home   Site Map/Menu  NWS Lubbock Soil Data  Daily Summary Page  24hr Precip  72hr Precip  Google Plot